createdAt,value
2022-12-27T00:00:43.783Z,101876.22
2022-12-27T00:02:45.330Z,101876.22
2022-12-27T00:04:47.012Z,101881.44
2022-12-27T00:06:48.529Z,101882.28
2022-12-27T00:08:50.291Z,101884.91
2022-12-27T00:10:52.075Z,101889.28
2022-12-27T00:12:54.123Z,101883.13
2022-12-27T00:14:55.561Z,101879.59
2022-12-27T00:16:57.037Z,101874.28
2022-12-27T00:18:58.952Z,101882.91
2022-12-27T00:21:01.955Z,101877.66
2022-12-27T00:23:03.560Z,101875.06
2022-12-27T00:25:05.491Z,101877.59
2022-12-27T00:27:06.934Z,101880.19
2022-12-27T00:29:10.464Z,101881.03
2022-12-27T00:31:12.556Z,101874.94
2022-12-27T00:33:14.043Z,101884.44
2022-12-27T00:35:15.630Z,101893.13
2022-12-27T00:37:17.116Z,101887.09
2022-12-27T00:39:18.836Z,101890.50
2022-12-27T00:41:20.484Z,101898.28
2022-12-27T00:43:21.924Z,101894.78
2022-12-27T00:45:23.421Z,101892.16
2022-12-27T00:47:24.937Z,101893.88
2022-12-27T00:49:26.471Z,101901.63
2022-12-27T00:51:28.326Z,101893.91
2022-12-27T00:53:30.798Z,101896.50
2022-12-27T00:55:32.697Z,101893.91
2022-12-27T00:57:34.147Z,101893.94
2022-12-27T00:59:35.587Z,101893.94
2022-12-27T01:01:38.722Z,101900.09
2022-12-27T01:03:40.409Z,101889.66
2022-12-27T01:05:41.900Z,101893.13
2022-12-27T01:07:43.456Z,101891.41
2022-12-27T01:09:44.895Z,101897.47
2022-12-27T01:11:46.341Z,101892.31
2022-12-27T01:13:48.026Z,101905.41
2022-12-27T01:15:49.485Z,101912.44
2022-12-27T01:17:51.747Z,101907.19
2022-12-27T01:19:53.183Z,101901.91
2022-12-27T01:21:54.645Z,101913.22
2022-12-27T01:23:56.282Z,101908.03
2022-12-27T01:26:02.867Z,101917.59
2022-12-27T01:28:04.361Z,101912.41
2022-12-27T01:30:07.438Z,101909.91
2022-12-27T01:32:09.014Z,101913.38
2022-12-27T01:34:10.998Z,101913.41
2022-12-27T01:36:20.991Z,101908.16
2022-12-27T01:38:22.463Z,101908.13
2022-12-27T01:40:25.355Z,101902.94
2022-12-27T01:42:45.851Z,101902.03
2022-12-27T01:44:54.979Z,101907.25
2022-12-27T01:46:56.562Z,101906.34
2022-12-27T01:48:58.379Z,101905.44
2022-12-27T01:51:02.912Z,101908.94
2022-12-27T01:53:21.256Z,101906.28
2022-12-27T01:56:02.750Z,101915.09
2022-12-27T01:58:29.961Z,101915.13
2022-12-27T02:00:31.508Z,101910.81
2022-12-27T02:02:33.247Z,101911.72
2022-12-27T02:04:34.922Z,101914.31
2022-12-27T02:06:37.899Z,101922.09
2022-12-27T02:08:49.499Z,101915.97
2022-12-27T02:10:51.305Z,101920.25
2022-12-27T02:12:52.892Z,101917.63
2022-12-27T02:14:54.465Z,101926.34
2022-12-27T02:16:58.431Z,101922.81
2022-12-27T02:19:00.040Z,101931.50
2022-12-27T02:21:34.570Z,101921.84
2022-12-27T02:24:03.934Z,101925.34
2022-12-27T02:26:24.249Z,101920.06
2022-12-27T02:28:46.369Z,101926.13
2022-12-27T02:30:54.228Z,101925.25
2022-12-27T02:33:04.695Z,101926.16
2022-12-27T02:35:18.551Z,101924.50
2022-12-27T02:37:23.498Z,101933.28
2022-12-27T02:39:27.321Z,101932.44
2022-12-27T02:41:50.504Z,101926.38
2022-12-27T02:44:15.184Z,101924.63
2022-12-27T02:46:39.918Z,101921.97
2022-12-27T02:49:13.347Z,101922.84
2022-12-27T02:51:48.497Z,101920.25
2022-12-27T02:54:16.285Z,101922.84
2022-12-27T02:56:50.306Z,101915.91
2022-12-27T02:59:16.264Z,101917.56
2022-12-27T03:02:06.478Z,101926.25
2022-12-27T03:04:26.075Z,101921.84
2022-12-27T03:06:46.066Z,101917.53
2022-12-27T03:08:57.855Z,101924.56
2022-12-27T03:11:19.583Z,101924.56
2022-12-27T03:13:56.148Z,101919.31
2022-12-27T03:16:19.349Z,101924.50
2022-12-27T03:18:32.338Z,101926.25
2022-12-27T03:20:53.714Z,101929.75
2022-12-27T03:23:15.282Z,101921.03
2022-12-27T03:25:30.165Z,101923.72
2022-12-27T03:27:36.403Z,101925.56
2022-12-27T03:29:56.786Z,101929.94
2022-12-27T03:32:21.178Z,101931.72
2022-12-27T03:34:47.369Z,101936.94
2022-12-27T03:37:07.759Z,101936.13
2022-12-27T03:39:09.143Z,101943.13
2022-12-27T03:41:39.474Z,101951.00
2022-12-27T03:43:41.450Z,101943.19
2022-12-27T03:46:13.481Z,101947.66
2022-12-27T03:48:22.526Z,101952.91
2022-12-27T03:50:38.221Z,101957.25
2022-12-27T03:52:47.549Z,101956.44
2022-12-27T03:54:51.814Z,101960.81
2022-12-27T03:56:59.187Z,101963.47
2022-12-27T03:59:02.360Z,101965.06
2022-12-27T04:01:03.893Z,101952.88
2022-12-27T04:03:05.468Z,101970.38
2022-12-27T04:05:08.108Z,101948.66
2022-12-27T04:07:13.044Z,101952.19
2022-12-27T04:09:32.725Z,101962.75
2022-12-27T04:11:52.492Z,101955.81
2022-12-27T04:14:12.794Z,101953.13
2022-12-27T04:16:32.623Z,101960.09
2022-12-27T04:18:52.329Z,101956.59
2022-12-27T04:21:12.148Z,101960.97
2022-12-27T04:23:31.853Z,101961.88
2022-12-27T04:25:51.684Z,101962.72
2022-12-27T04:28:11.435Z,101958.34
2022-12-27T04:30:31.392Z,101960.91
2022-12-27T04:32:51.257Z,101972.19
2022-12-27T04:34:52.717Z,101966.09
2022-12-27T04:36:54.201Z,101965.28
2022-12-27T04:38:55.665Z,101989.69
2022-12-27T04:41:15.433Z,101986.25
2022-12-27T04:43:35.218Z,101989.81
2022-12-27T04:45:55.475Z,102004.66
2022-12-27T04:48:15.703Z,102000.34
2022-12-27T04:50:48.252Z,101994.25
2022-12-27T04:53:08.036Z,101995.91
2022-12-27T04:55:18.890Z,101991.47
2022-12-27T04:57:20.326Z,102003.63
2022-12-27T04:59:40.227Z,101992.31
2022-12-27T05:02:00.742Z,102001.81
2022-12-27T05:04:02.363Z,102012.28
2022-12-27T05:06:04.551Z,102013.13
2022-12-27T05:08:25.412Z,102018.38
2022-12-27T05:10:46.253Z,102014.00
2022-12-27T05:13:06.617Z,102018.38
2022-12-27T05:15:08.583Z,102022.72
2022-12-27T05:17:10.078Z,102021.00
2022-12-27T05:19:13.315Z,102041.03
2022-12-27T05:21:14.826Z,102026.25
2022-12-27T05:23:35.322Z,102040.19
2022-12-27T05:25:41.638Z,102029.75
2022-12-27T05:27:43.139Z,102038.44
2022-12-27T05:29:45.526Z,102042.78
2022-12-27T05:31:47.047Z,102035.78
2022-12-27T05:33:49.772Z,102041.88
2022-12-27T05:35:51.234Z,102039.25
2022-12-27T05:37:55.912Z,102043.56
2022-12-27T05:39:57.433Z,102039.19
2022-12-27T05:41:58.885Z,102037.47
2022-12-27T05:44:06.564Z,102050.63
2022-12-27T05:46:14.260Z,102050.69
2022-12-27T05:48:15.857Z,102062.03
2022-12-27T05:50:17.468Z,102066.41
2022-12-27T05:52:19.153Z,102068.09
2022-12-27T05:54:20.666Z,102056.72
2022-12-27T05:56:22.364Z,102074.13
2022-12-27T05:58:24.716Z,102068.94
2022-12-27T06:00:26.237Z,102064.59
2022-12-27T06:02:27.935Z,102071.56
2022-12-27T06:04:29.586Z,102067.16
2022-12-27T06:06:31.053Z,102072.34
2022-12-27T06:08:33.082Z,102078.41
2022-12-27T06:10:34.853Z,102078.41
2022-12-27T06:12:37.320Z,102074.03
2022-12-27T06:14:38.809Z,102068.78
2022-12-27T06:16:40.366Z,102068.78
2022-12-27T06:18:42.825Z,102063.53
2022-12-27T06:20:44.305Z,102070.53
2022-12-27T06:22:46.015Z,102065.38
2022-12-27T06:24:47.479Z,102073.22
2022-12-27T06:26:48.982Z,102081.16
2022-12-27T06:28:51.855Z,102085.56
2022-12-27T06:30:53.309Z,102097.78
2022-12-27T06:32:54.768Z,102099.59
2022-12-27T06:34:56.250Z,102091.75
2022-12-27T06:36:57.694Z,102115.25
2022-12-27T06:39:00.076Z,102107.41
2022-12-27T06:41:03.199Z,102110.06
2022-12-27T06:43:04.685Z,102109.13
2022-12-27T06:45:07.132Z,102103.94
2022-12-27T06:47:08.641Z,102112.63
2022-12-27T06:49:10.978Z,102112.63
2022-12-27T06:51:14.133Z,102111.69
2022-12-27T06:53:15.782Z,102107.31
2022-12-27T06:55:17.233Z,102115.03
2022-12-27T06:57:18.741Z,102121.03
2022-12-27T06:59:20.211Z,102111.41
2022-12-27T07:01:25.196Z,102120.84
2022-12-27T07:03:26.730Z,102131.38
2022-12-27T07:05:28.184Z,102126.94
2022-12-27T07:07:29.620Z,102135.56
2022-12-27T07:09:31.108Z,102142.38
2022-12-27T07:11:34.444Z,102147.56
2022-12-27T07:13:38.663Z,102156.31
2022-12-27T07:15:40.121Z,102166.72
2022-12-27T07:17:41.608Z,102153.66
2022-12-27T07:19:43.096Z,102172.88
2022-12-27T07:21:44.554Z,102170.28
2022-12-27T07:23:46.440Z,102172.97
2022-12-27T07:25:47.886Z,102177.38
2022-12-27T07:27:49.360Z,102179.94
2022-12-27T07:29:51.715Z,102184.28
2022-12-27T07:31:53.283Z,102195.66
2022-12-27T07:33:55.518Z,102198.16
2022-12-27T07:35:59.350Z,102211.19
2022-12-27T07:38:00.852Z,102209.44
2022-12-27T07:40:02.428Z,102211.09
2022-12-27T07:42:08.099Z,102212.84
2022-12-27T07:44:11.107Z,102211.94
2022-12-27T07:46:24.473Z,102211.91
2022-12-27T07:48:28.284Z,102227.56
2022-12-27T07:50:29.715Z,102232.84
2022-12-27T07:52:31.188Z,102229.31
2022-12-27T07:54:32.696Z,102226.75
2022-12-27T07:56:34.303Z,102235.38
2022-12-27T07:58:37.651Z,102238.06
2022-12-27T08:00:39.129Z,102241.47
2022-12-27T08:02:40.732Z,102238.94
2022-12-27T08:04:42.714Z,102245.03
2022-12-27T08:06:45.748Z,102239.81
2022-12-27T08:08:47.602Z,102244.16
2022-12-27T08:10:49.083Z,102253.69
2022-12-27T08:12:50.534Z,102244.16
2022-12-27T08:14:52.144Z,102250.25
2022-12-27T08:16:54.101Z,102249.38
2022-12-27T08:18:56.209Z,102249.38
2022-12-27T08:20:57.870Z,102249.41
2022-12-27T08:22:59.464Z,102253.78
2022-12-27T08:25:01.055Z,102248.63
2022-12-27T08:27:02.647Z,102250.47
2022-12-27T08:29:04.167Z,102252.22
2022-12-27T08:31:09.045Z,102254.00
2022-12-27T08:33:11.403Z,102247.13
2022-12-27T08:35:50.067Z,102255.88
2022-12-27T08:37:34.479Z,102253.28
2022-12-27T08:39:35.939Z,102255.06
2022-12-27T08:41:37.728Z,102260.31
2022-12-27T08:43:39.179Z,102254.25
2022-12-27T08:45:40.842Z,102254.31
2022-12-27T08:47:42.341Z,102259.56
2022-12-27T08:49:43.791Z,102267.47
2022-12-27T08:51:45.317Z,102271.88
2022-12-27T08:53:49.289Z,102279.75
2022-12-27T08:55:50.793Z,102275.44
2022-12-27T08:57:57.687Z,102273.75
2022-12-27T08:59:59.200Z,102279.88
2022-12-27T09:02:00.742Z,102286.91
2022-12-27T09:04:02.276Z,102289.56
2022-12-27T09:06:18.397Z,102293.06
2022-12-27T09:08:19.870Z,102292.25
2022-12-27T09:10:23.735Z,102296.72
2022-12-27T09:12:25.215Z,102299.41
2022-12-27T09:14:26.701Z,102303.88
2022-12-27T09:16:29.433Z,102304.78
2022-12-27T09:18:30.891Z,102306.59
2022-12-27T09:20:32.405Z,102308.34
2022-12-27T09:22:34.181Z,102306.69
2022-12-27T09:24:35.738Z,102311.94
2022-12-27T09:26:37.295Z,102316.34
2022-12-27T09:28:39.546Z,102321.63
2022-12-27T09:30:41.123Z,102326.06
2022-12-27T09:32:42.583Z,102326.13
2022-12-27T09:34:44.060Z,102329.66
2022-12-27T09:36:45.653Z,102323.63
2022-12-27T09:38:48.571Z,102322.78
2022-12-27T09:40:54.946Z,102322.91
2022-12-27T09:43:18.176Z,102329.03
2022-12-27T09:45:36.879Z,102323.88
2022-12-27T09:48:31.092Z,102320.41
2022-12-27T09:50:45.369Z,102322.28
2022-12-27T09:53:01.802Z,102329.28
2022-12-27T09:55:19.725Z,102333.72
2022-12-27T09:57:29.051Z,102335.56
2022-12-27T09:59:36.003Z,102331.28
2022-12-27T10:01:40.635Z,102338.34
2022-12-27T10:03:42.258Z,102334.00
2022-12-27T10:05:53.177Z,102331.44
2022-12-27T10:08:25.740Z,102332.38
2022-12-27T10:10:54.518Z,102340.28
2022-12-27T10:13:15.783Z,102332.50
2022-12-27T10:15:29.980Z,102331.69
2022-12-27T10:18:02.405Z,102337.00
2022-12-27T10:20:30.796Z,102328.34
2022-12-27T10:22:43.720Z,102331.88
2022-12-27T10:24:50.887Z,102328.41
2022-12-27T10:26:55.154Z,102339.78
2022-12-27T10:29:02.260Z,102338.97
2022-12-27T10:31:04.633Z,102331.13
2022-12-27T10:33:19.928Z,102332.94
2022-12-27T10:35:22.622Z,102332.06
2022-12-27T10:37:24.427Z,102340.88
2022-12-27T10:39:32.328Z,102335.72
2022-12-27T10:42:11.924Z,102349.78
2022-12-27T10:44:13.703Z,102343.72
2022-12-27T10:46:19.381Z,102343.81
2022-12-27T10:48:47.326Z,102344.81
2022-12-27T10:50:56.872Z,102346.66
2022-12-27T10:52:58.412Z,102350.25
2022-12-27T10:54:59.856Z,102355.66
2022-12-27T10:57:26.929Z,102368.97
2022-12-27T10:59:28.990Z,102358.66
2022-12-27T11:01:32.654Z,102365.88
2022-12-27T11:03:34.197Z,102373.47
2022-12-27T11:05:37.092Z,102372.44
2022-12-27T11:07:38.550Z,102362.22
2022-12-27T11:09:50.261Z,102360.03
2022-12-27T11:12:12.007Z,102348.13
2022-12-27T11:14:19.051Z,102358.13
2022-12-27T11:16:29.471Z,102359.28
2022-12-27T11:18:36.341Z,102358.56
2022-12-27T11:20:39.353Z,102361.22
2022-12-27T11:22:46.837Z,102359.53
2022-12-27T11:24:51.428Z,102366.56
2022-12-27T11:26:58.090Z,102370.97
2022-12-27T11:29:01.755Z,102374.47
2022-12-27T11:31:07.105Z,102376.25
2022-12-27T11:33:26.893Z,102368.34
2022-12-27T11:35:28.560Z,102363.00
2022-12-27T11:37:30.136Z,102377.75
2022-12-27T11:39:48.308Z,102374.75
2022-12-27T11:41:54.804Z,102380.84
2022-12-27T11:44:14.100Z,102387.78
2022-12-27T11:46:28.615Z,102382.34
2022-12-27T11:48:42.025Z,102392.78
2022-12-27T11:51:18.714Z,102388.16
2022-12-27T11:53:32.037Z,102386.88
2022-12-27T11:55:52.040Z,102382.25
2022-12-27T11:58:18.356Z,102383.72
2022-12-27T12:00:23.697Z,102385.38
2022-12-27T12:02:50.308Z,102380.84
2022-12-27T12:05:22.624Z,102378.09
2022-12-27T12:07:36.518Z,102383.22
2022-12-27T12:09:59.875Z,102379.59
2022-12-27T12:12:40.297Z,102383.00
2022-12-27T12:14:50.139Z,102383.00
2022-12-27T12:17:03.425Z,102386.56
2022-12-27T12:19:13.204Z,102379.50
2022-12-27T12:21:14.879Z,102384.72
2022-12-27T12:23:28.473Z,102384.69
2022-12-27T12:25:39.003Z,102380.31
2022-12-27T12:27:46.498Z,102375.06
2022-12-27T12:30:25.364Z,102382.88
2022-12-27T12:32:32.861Z,102377.63
2022-12-27T12:35:11.709Z,102371.47
2022-12-27T12:37:31.497Z,102372.38
2022-12-27T12:39:51.023Z,102368.13
2022-12-27T12:42:20.545Z,102367.41
2022-12-27T12:44:21.972Z,102360.59
2022-12-27T12:46:44.105Z,102359.91
2022-12-27T12:48:57.887Z,102366.13
2022-12-27T12:51:05.380Z,102366.97
2022-12-27T12:53:43.412Z,102382.66
2022-12-27T12:55:58.445Z,102369.41
2022-12-27T12:58:32.273Z,102371.09
2022-12-27T13:00:49.897Z,102368.47
2022-12-27T13:03:16.393Z,102368.50
2022-12-27T13:05:41.981Z,102359.72
2022-12-27T13:07:56.289Z,102358.88
2022-12-27T13:10:22.224Z,102364.13
2022-12-27T13:12:52.271Z,102364.16
2022-12-27T13:15:23.414Z,102356.31
2022-12-27T13:17:34.015Z,102351.91
2022-12-27T13:19:41.621Z,102347.56
2022-12-27T13:22:01.638Z,102344.94
2022-12-27T13:24:12.291Z,102345.81
2022-12-27T13:26:40.469Z,102342.31
2022-12-27T13:29:24.696Z,102337.00
2022-12-27T13:31:47.697Z,102337.88
2022-12-27T13:34:26.840Z,102334.41
2022-12-27T13:36:43.295Z,102335.31
2022-12-27T13:39:01.755Z,102330.06
2022-12-27T13:41:36.827Z,102340.53
2022-12-27T13:44:02.651Z,102329.13
2022-12-27T13:46:22.914Z,102334.34
2022-12-27T13:48:43.141Z,102323.81
2022-12-27T13:51:09.101Z,102325.50
2022-12-27T13:53:32.271Z,102314.94
2022-12-27T13:55:51.403Z,102310.53
2022-12-27T13:58:13.925Z,102305.19
2022-12-27T14:00:19.959Z,102303.44
2022-12-27T14:02:27.536Z,102306.03
2022-12-27T14:04:56.052Z,102307.75
2022-12-27T14:07:22.296Z,102306.91
2022-12-27T14:09:43.977Z,102313.84
2022-12-27T14:12:09.251Z,102312.09
2022-12-27T14:14:15.465Z,102304.19
2022-12-27T14:16:32.254Z,102319.91
2022-12-27T14:19:06.241Z,102320.69
2022-12-27T14:21:45.244Z,102317.13
2022-12-27T14:24:02.217Z,102309.22
2022-12-27T14:26:34.704Z,102312.69
2022-12-27T14:28:48.205Z,102306.53
2022-12-27T14:31:20.074Z,102315.28
2022-12-27T14:33:38.407Z,102312.63
2022-12-27T14:35:42.555Z,102317.84
2022-12-27T14:38:11.940Z,102316.97
2022-12-27T14:40:44.484Z,102312.56
2022-12-27T14:43:23.140Z,102317.75
2022-12-27T14:45:44.337Z,102308.13
2022-12-27T14:48:07.907Z,102305.50
2022-12-27T14:50:54.274Z,102309.84
2022-12-27T14:53:21.622Z,102307.16
2022-12-27T14:55:39.576Z,102302.78
2022-12-27T14:58:05.038Z,102307.13
2022-12-27T15:00:22.517Z,102310.59
2022-12-27T15:02:41.520Z,102295.72
2022-12-27T15:05:06.474Z,102294.78
2022-12-27T15:07:32.647Z,102297.34
2022-12-27T15:09:56.086Z,102293.75
2022-12-27T15:12:16.290Z,102292.78
2022-12-27T15:14:42.081Z,102288.34
2022-12-27T15:17:02.812Z,102291.81
2022-12-27T15:19:36.211Z,102289.09
2022-12-27T15:21:55.891Z,102295.16
2022-12-27T15:24:20.173Z,102291.59
2022-12-27T15:26:33.528Z,102295.88
2022-12-27T15:28:56.449Z,102292.31
2022-12-27T15:31:13.561Z,102290.53
2022-12-27T15:33:46.129Z,102292.22
2022-12-27T15:36:15.383Z,102282.56
2022-12-27T15:38:35.542Z,102278.97
2022-12-27T15:40:47.903Z,102280.69
2022-12-27T15:42:56.626Z,102279.75
2022-12-27T15:45:12.959Z,102269.28
2022-12-27T15:47:48.387Z,102271.88
2022-12-27T15:49:59.721Z,102273.56
2022-12-27T15:52:27.066Z,102272.63
2022-12-27T15:54:50.318Z,102266.50
2022-12-27T15:57:19.560Z,102259.47
2022-12-27T15:59:45.330Z,102260.31
2022-12-27T16:01:47.156Z,102255.88
2022-12-27T16:03:50.268Z,102264.59
2022-12-27T16:05:53.923Z,102254.09
2022-12-27T16:07:58.119Z,102249.69
2022-12-27T16:09:59.879Z,102242.69
2022-12-27T16:12:13.625Z,102248.78
2022-12-27T16:14:30.840Z,102245.31
2022-12-27T16:16:38.809Z,102240.97
2022-12-27T16:18:54.909Z,102232.22
2022-12-27T16:21:40.485Z,102236.56
2022-12-27T16:23:57.814Z,102235.66
2022-12-27T16:26:19.596Z,102235.59
2022-12-27T16:28:27.271Z,102239.03
2022-12-27T16:30:44.952Z,102247.69
2022-12-27T16:32:49.499Z,102235.47
2022-12-27T16:34:55.452Z,102235.47
2022-12-27T16:37:01.024Z,102232.88
2022-12-27T16:39:11.700Z,102236.38
2022-12-27T16:41:39.858Z,102246.94
2022-12-27T16:43:52.975Z,102246.00
2022-12-27T16:45:59.763Z,102232.91
2022-12-27T16:48:19.451Z,102234.66
2022-12-27T16:50:38.918Z,102234.63
2022-12-27T16:53:11.419Z,102245.94
2022-12-27T16:55:50.447Z,102242.47
2022-12-27T16:57:52.053Z,102242.47
2022-12-27T17:00:23.096Z,102235.47
2022-12-27T17:02:39.043Z,102234.59
2022-12-27T17:04:49.507Z,102234.59
2022-12-27T17:06:56.012Z,102224.09
2022-12-27T17:09:06.335Z,102233.72
2022-12-27T17:11:28.775Z,102231.88
2022-12-27T17:13:54.536Z,102225.69
2022-12-27T17:15:57.968Z,102235.28
2022-12-27T17:18:08.982Z,102231.78
2022-12-27T17:20:17.798Z,102221.28
2022-12-27T17:22:20.824Z,102224.72
2022-12-27T17:24:23.535Z,102223.78
2022-12-27T17:26:43.335Z,102222.81
2022-12-27T17:29:08.876Z,102228.84
2022-12-27T17:31:22.334Z,102226.22
2022-12-27T17:33:36.581Z,102226.19
2022-12-27T17:36:06.313Z,102234.94
2022-12-27T17:38:19.942Z,102231.41
2022-12-27T17:40:38.042Z,102228.81
2022-12-27T17:43:09.610Z,102228.84
2022-12-27T17:45:16.996Z,102226.22
2022-12-27T17:47:18.402Z,102214.91
2022-12-27T17:49:27.008Z,102215.81
2022-12-27T17:51:31.349Z,102217.53
2022-12-27T17:53:51.536Z,102214.91
2022-12-27T17:56:29.995Z,102210.59
2022-12-27T17:58:34.755Z,102207.06
2022-12-27T18:00:49.811Z,102200.13
2022-12-27T18:02:55.091Z,102201.00
2022-12-27T18:05:00.181Z,102196.66
2022-12-27T18:07:05.209Z,102193.16
2022-12-27T18:09:07.445Z,102194.00
2022-12-27T18:11:11.049Z,102183.53
2022-12-27T18:13:18.492Z,102188.00
2022-12-27T18:15:30.176Z,102177.56
2022-12-27T18:17:48.405Z,102176.63
2022-12-27T18:19:49.908Z,102176.66
2022-12-27T18:22:02.656Z,102177.50
2022-12-27T18:24:23.656Z,102172.22
2022-12-27T18:26:39.482Z,102174.81
2022-12-27T18:28:41.814Z,102165.25
2022-12-27T18:30:47.962Z,102163.50
2022-12-27T18:32:49.555Z,102166.09
2022-12-27T18:34:57.617Z,102165.25
2022-12-27T18:37:07.243Z,102161.78
2022-12-27T18:39:32.103Z,102156.59
2022-12-27T18:42:02.158Z,102144.38
2022-12-27T18:44:04.226Z,102137.44
2022-12-27T18:46:05.918Z,102136.63
2022-12-27T18:48:12.058Z,102137.50
2022-12-27T18:50:19.734Z,102140.97
2022-12-27T18:52:25.159Z,102134.00
2022-12-27T18:54:29.370Z,102134.03
2022-12-27T18:56:34.293Z,102138.38
2022-12-27T18:58:35.807Z,102137.41
2022-12-27T19:00:49.175Z,102148.75
2022-12-27T19:02:52.350Z,102137.41
2022-12-27T19:05:13.370Z,102132.13
2022-12-27T19:07:15.559Z,102133.84
2022-12-27T19:09:19.704Z,102128.66
2022-12-27T19:11:30.442Z,102126.03
2022-12-27T19:13:49.344Z,102114.69
2022-12-27T19:15:52.484Z,102120.78
2022-12-27T19:18:00.884Z,102122.50
2022-12-27T19:20:06.553Z,102110.22
2022-12-27T19:22:31.842Z,102114.56
2022-12-27T19:24:33.881Z,102105.88
2022-12-27T19:26:35.619Z,102102.38
2022-12-27T19:28:37.079Z,102101.50
2022-12-27T19:30:46.087Z,102105.00
2022-12-27T19:32:47.536Z,102094.50
2022-12-27T19:34:52.500Z,102094.50
2022-12-27T19:36:55.169Z,102087.53
2022-12-27T19:38:57.339Z,102080.59
2022-12-27T19:41:03.966Z,102079.72
2022-12-27T19:43:05.662Z,102078.00
2022-12-27T19:45:07.330Z,102073.63
2022-12-27T19:47:13.370Z,102081.50
2022-12-27T19:49:40.864Z,102078.03
2022-12-27T19:51:37.335Z,102081.53
2022-12-27T19:53:41.481Z,102078.09
2022-12-27T19:55:43.389Z,102072.91
2022-12-27T19:57:44.905Z,102072.13
2022-12-27T19:59:46.401Z,102067.81
2022-12-27T20:01:48.178Z,102066.97
2022-12-27T20:03:49.748Z,102073.13
2022-12-27T20:06:13.371Z,102064.44
2022-12-27T20:08:44.952Z,102064.53
2022-12-27T20:10:46.441Z,102058.44
2022-12-27T20:12:47.901Z,102052.41
2022-12-27T20:14:49.367Z,102053.34
2022-12-27T20:16:50.933Z,102055.16
2022-12-27T20:18:52.648Z,102044.69
2022-12-27T20:20:54.571Z,102044.75
2022-12-27T20:22:56.034Z,102045.66
2022-12-27T20:24:57.853Z,102037.81
2022-12-27T20:26:59.407Z,102039.63
2022-12-27T20:29:00.923Z,102035.34
2022-12-27T20:31:10.894Z,102035.38
2022-12-27T20:33:13.384Z,102035.41
2022-12-27T20:35:14.879Z,102024.94
2022-12-27T20:37:21.151Z,102033.72
2022-12-27T20:39:25.682Z,102031.16
2022-12-27T20:41:28.456Z,102044.31
2022-12-27T20:43:30.084Z,102034.78
2022-12-27T20:45:31.722Z,102026.97
2022-12-27T20:47:33.549Z,102027.00
2022-12-27T20:49:35.016Z,102020.09
2022-12-27T20:51:37.365Z,102026.22
2022-12-27T20:53:39.065Z,102028.88
2022-12-27T20:55:40.522Z,102018.44
2022-12-27T20:57:42.525Z,102016.78
2022-12-27T20:59:44.087Z,102009.84
2022-12-27T21:01:45.702Z,102000.28
2022-12-27T21:03:48.150Z,101996.81
2022-12-27T21:05:49.698Z,101994.25
2022-12-27T21:07:51.333Z,101989.03
2022-12-27T21:09:52.877Z,101981.22
2022-12-27T21:11:54.481Z,101979.53
2022-12-27T21:13:55.990Z,101969.94
2022-12-27T21:15:57.441Z,101962.09
2022-12-27T21:17:58.936Z,101968.19
2022-12-27T21:20:00.410Z,101973.47
2022-12-27T21:22:01.876Z,101975.28
2022-12-27T21:24:04.469Z,101968.31
2022-12-27T21:26:15.060Z,101970.16
2022-12-27T21:28:16.511Z,101961.41
2022-12-27T21:30:18.050Z,101956.19
2022-12-27T21:32:19.570Z,101950.94
2022-12-27T21:34:21.059Z,101949.25
2022-12-27T21:36:28.056Z,101953.66
2022-12-27T21:38:29.705Z,101941.44
2022-12-27T21:40:31.168Z,101939.72
2022-12-27T21:42:32.649Z,101941.44
2022-12-27T21:44:36.829Z,101938.81
2022-12-27T21:46:41.113Z,101937.91
2022-12-27T21:48:43.188Z,101930.91
2022-12-27T21:50:45.477Z,101941.38
2022-12-27T21:52:46.961Z,101937.88
2022-12-27T21:54:48.465Z,101937.00
2022-12-27T21:56:50.505Z,101927.38
2022-12-27T21:58:52.422Z,101931.75
2022-12-27T22:00:57.952Z,101923.03
2022-12-27T22:02:59.824Z,101920.41
2022-12-27T22:05:01.436Z,101918.69
2022-12-27T22:07:03.004Z,101916.06
2022-12-27T22:09:06.916Z,101910.81
2022-12-27T22:11:08.932Z,101916.03
2022-12-27T22:13:10.920Z,101908.16
2022-12-27T22:15:12.432Z,101911.63
2022-12-27T22:17:13.914Z,101915.06
2022-12-27T22:19:15.717Z,101901.06
2022-12-27T22:21:23.211Z,101905.44
2022-12-27T22:23:24.650Z,101898.44
2022-12-27T22:25:26.114Z,101891.44
2022-12-27T22:27:27.585Z,101892.31
2022-12-27T22:29:34.885Z,101885.31
2022-12-27T22:31:37.997Z,101886.19
2022-12-27T22:33:40.179Z,101881.78
2022-12-27T22:35:41.824Z,101882.66
2022-12-27T22:37:43.293Z,101872.16
2022-12-27T22:39:44.733Z,101876.53
2022-12-27T22:41:46.215Z,101873.91
2022-12-27T22:43:52.777Z,101871.28
2022-12-27T22:45:54.220Z,101864.28
2022-12-27T22:47:55.831Z,101860.78
2022-12-27T22:49:57.289Z,101859.88
2022-12-27T22:51:58.751Z,101860.75
2022-12-27T22:54:02.377Z,101853.75
2022-12-27T22:56:04.031Z,101850.25
2022-12-27T22:58:05.484Z,101851.97
2022-12-27T23:00:12.136Z,101841.50
2022-12-27T23:02:13.651Z,101838.03
2022-12-27T23:04:15.283Z,101845.00
2022-12-27T23:06:17.465Z,101838.00
2022-12-27T23:08:18.917Z,101836.28
2022-12-27T23:10:20.385Z,101833.66
2022-12-27T23:12:21.849Z,101828.44
2022-12-27T23:14:23.422Z,101825.84
2022-12-27T23:16:25.786Z,101814.50
2022-12-27T23:18:28.153Z,101821.47
2022-12-27T23:20:29.639Z,101815.34
2022-12-27T23:22:31.106Z,101809.22
2022-12-27T23:24:33.291Z,101801.34
2022-12-27T23:26:35.206Z,101803.97
2022-12-27T23:28:37.579Z,101795.25
2022-12-27T23:30:39.670Z,101789.13
2022-12-27T23:32:41.116Z,101784.75
2022-12-27T23:34:42.583Z,101785.63
2022-12-27T23:36:44.041Z,101788.25
2022-12-27T23:38:46.011Z,101780.41
2022-12-27T23:40:54.677Z,101771.66
2022-12-27T23:43:06.666Z,101769.03
2022-12-27T23:45:18.631Z,101769.00
2022-12-27T23:47:20.120Z,101759.41
2022-12-27T23:49:21.560Z,101754.16
2022-12-27T23:51:23.688Z,101756.78
2022-12-27T23:53:25.250Z,101746.31
2022-12-27T23:55:26.709Z,101743.66
2022-12-27T23:57:28.278Z,101739.28
2022-12-27T23:59:29.750Z,101740.16
